Fwn Rapide — PBMT — position and weather

sailwx.info

Track history (hours):
 
Tides and Currents Weather Stations Pressure Air Temp Water Temp Dewpoint Dewpoint Depression Visibility Wind Speed Wind Dir Waves Ship Positions

Fwn Rapide

Last reported at 2017-Sep-21 16:39 UTC. Time now 2017-Sep-23 16:37 UTC.
Position N 37°00' E 013°07'.

Length 146 m; draft 6.9 m.

Type: Cargo ship. MMSI: 244850853.

Date/timePositionNaut miles runAvg speedWind from/ knotsBaromVisibWave heightAir tempDewpointWater temp
2017-Sep-21 16:39N 37°00' E 013°07'1911.8
2017-Sep-21 15:05N 36°54' E 013°29'211.6
2017-Sep-21 14:53N 36°53' E 013°32'411.5
2017-Sep-21 14:30N 36°52' E 013°37'611.3
2017-Sep-21 14:00N 36°50' E 013°44'510.1
2017-Sep-21 13:30N 36°48' E 013°50'510.1
2017-Sep-21 13:00N 36°47' E 013°56'510.0
2017-Sep-21 12:30N 36°45' E 014°02'611.0
2017-Sep-21 12:00N 36°44' E 014°08'611.3
2017-Sep-21 11:30N 36°42' E 014°15'611.5
2017-Sep-21 11:00N 36°40' E 014°22'611.2
2017-Sep-21 10:30N 36°39' E 014°29'510.5
2017-Sep-21 10:00N 36°37' E 014°35'510.7
2017-Sep-21 09:30N 36°36' E 014°41'41010.8
2017-Sep-19 19:21N 36°25' E 023°12'4 9.9
2017-Sep-19 19:00N 36°26' E 023°15'611.4
2017-Sep-19 18:30N 36°31' E 023°19'611.3
2017-Sep-19 18:00N 36°36' E 023°23'611.3
2017-Sep-19 17:30N 36°41' E 023°27'611.2
2017-Sep-19 16:57N 36°46' E 023°31'511.7
2017-Sep-19 16:30N 36°50' E 023°34'611.8
2017-Sep-19 16:00N 36°56' E 023°37'611.5
2017-Sep-19 15:30N 37°01' E 023°41'611.1
2017-Sep-19 15:00N 37°05' E 023°45'611.2
2017-Sep-19 14:30N 37°10' E 023°48'611.3
2017-Sep-19 14:00N 37°15' E 023°52'611.3
2017-Sep-19 13:30N 37°20' E 023°56'611.3
2017-Sep-19 13:00N 37°24' E 023°60'611.1
2017-Sep-19 12:30N 37°29' E 024°03'1811.7
2017-Sep-19 11:00N 37°44' E 024°16'  
2017-Sep-16 02:44N 40°46' E 027°40'2 8.9
2017-Sep-16 02:30N 40°46' E 027°43'4 8.6
2017-Sep-16 02:01N 40°47' E 027°48'510.6
2017-Sep-16 01:30N 40°48' E 027°55'611.6
2017-Sep-16 01:00N 40°49' E 028°02'711.7
2017-Sep-16 00:26N 40°50' E 028°11'511.7
2017-Sep-16 00:00N 40°51' E 028°18'611.7
2017-Sep-15 23:30N 40°52' E 028°25'612.1
2017-Sep-15 23:00N 40°53' E 028°33'18310.7
2017-Sep-15 05:52N 42°06' E 032°17'411.4
2017-Sep-15 05:30N 42°07' E 032°23'611.4
2017-Sep-15 05:00N 42°09' E 032°30'4111.4
2017-Sep-15 01:24N 42°21' E 033°22'1411.7
2017-Sep-15 00:12N 42°22' E 033°41'1011.8
2017-Sep-14 23:20N 42°22' E 033°55'411.7
2017-Sep-14 22:59N 42°22' E 034°01'511.6
2017-Sep-14 22:30N 42°22' E 034°08'611.4
2017-Sep-14 22:00N 42°23' E 034°16'3211.6
2017-Sep-14 19:16N 42°24' E 034°59'711.3
2017-Sep-14 18:37N 42°23' E 035°09'112.1
2017-Sep-14 18:30N 42°22' E 035°10'911.9
2017-Sep-14 17:46N 42°18' E 035°21'2011.6
2017-Sep-14 16:03N 42°08' E 035°44'311.5
2017-Sep-14 15:49N 42°07' E 035°48'92 3.6
2017-Sep-13 14:03N 41°07' E 037°21'0 0.0
2017-Sep-13 14:00N 41°07' E 037°21'0 0.0
2017-Sep-13 11:18N 41°07' E 037°21'0 0.0
2017-Sep-12 08:17N 41°07' E 037°21'0 0.0
2017-Sep-12 06:53N 41°07' E 037°21'0 0.0
2017-Sep-12 06:29N 41°07' E 037°21'0 0.0
2017-Sep-12 05:59N 41°07' E 037°21'0 0.0
2017-Sep-12 05:29N 41°07' E 037°21'0 0.0
2017-Sep-12 04:59N 41°07' E 037°21'0 0.2
2017-Sep-12 02:59N 41°07' E 037°21'1 2.8
2017-Sep-12 02:30N 41°07' E 037°23'1 1.0
2017-Sep-12 02:00N 41°08' E 037°23'0 0.2
2017-Sep-12 01:27N 41°07' E 037°23'0 0.0
2017-Sep-12 00:18N 41°07' E 037°23'0 0.0
2017-Sep-11 21:45N 41°08' E 037°23'0 0.0
2017-Sep-11 21:30N 41°08' E 037°23'0 0.0
2017-Sep-11 18:21N 41°08' E 037°23'0 0.0
2017-Sep-11 17:51N 41°08' E 037°23'0 0.0
2017-Sep-11 17:21N 41°08' E 037°23'0 0.0
2017-Sep-11 16:48N 41°08' E 037°23'  
Track history (hours):
 
Tides and Currents Weather Stations Pressure Air Temp Water Temp Dewpoint Dewpoint Depression Visibility Wind Speed Wind Dir Waves Ship Positions

Fwn Rapide

Last reported at 2017-Sep-21 16:39 UTC. Time now 2017-Sep-23 16:37 UTC.
Position N 37°00' E 013°07'.

Length 146 m; draft 6.9 m.

Type: Cargo ship. MMSI: 244850853.

Date/timePositionNaut miles runAvg speedWind from/ knotsBaromVisibWave heightAir tempDewpointWater temp
2017-Sep-21 16:39N 37°00' E 013°07'1911.8
2017-Sep-21 15:05N 36°54' E 013°29'211.6
2017-Sep-21 14:53N 36°53' E 013°32'411.5
2017-Sep-21 14:30N 36°52' E 013°37'611.3
2017-Sep-21 14:00N 36°50' E 013°44'510.1
2017-Sep-21 13:30N 36°48' E 013°50'510.1
2017-Sep-21 13:00N 36°47' E 013°56'510.0
2017-Sep-21 12:30N 36°45' E 014°02'611.0
2017-Sep-21 12:00N 36°44' E 014°08'611.3
2017-Sep-21 11:30N 36°42' E 014°15'611.5
2017-Sep-21 11:00N 36°40' E 014°22'611.2
2017-Sep-21 10:30N 36°39' E 014°29'510.5
2017-Sep-21 10:00N 36°37' E 014°35'510.7
2017-Sep-21 09:30N 36°36' E 014°41'41010.8
2017-Sep-19 19:21N 36°25' E 023°12'4 9.9
2017-Sep-19 19:00N 36°26' E 023°15'611.4
2017-Sep-19 18:30N 36°31' E 023°19'611.3
2017-Sep-19 18:00N 36°36' E 023°23'611.3
2017-Sep-19 17:30N 36°41' E 023°27'611.2
2017-Sep-19 16:57N 36°46' E 023°31'511.7
2017-Sep-19 16:30N 36°50' E 023°34'611.8
2017-Sep-19 16:00N 36°56' E 023°37'611.5
2017-Sep-19 15:30N 37°01' E 023°41'611.1
2017-Sep-19 15:00N 37°05' E 023°45'611.2
2017-Sep-19 14:30N 37°10' E 023°48'611.3
2017-Sep-19 14:00N 37°15' E 023°52'611.3
2017-Sep-19 13:30N 37°20' E 023°56'611.3
2017-Sep-19 13:00N 37°24' E 023°60'611.1
2017-Sep-19 12:30N 37°29' E 024°03'1811.7
2017-Sep-19 11:00N 37°44' E 024°16'  
2017-Sep-16 02:44N 40°46' E 027°40'2 8.9
2017-Sep-16 02:30N 40°46' E 027°43'4 8.6
2017-Sep-16 02:01N 40°47' E 027°48'510.6
2017-Sep-16 01:30N 40°48' E 027°55'611.6
2017-Sep-16 01:00N 40°49' E 028°02'711.7
2017-Sep-16 00:26N 40°50' E 028°11'511.7
2017-Sep-16 00:00N 40°51' E 028°18'611.7
2017-Sep-15 23:30N 40°52' E 028°25'612.1
2017-Sep-15 23:00N 40°53' E 028°33'18310.7
2017-Sep-15 05:52N 42°06' E 032°17'411.4
2017-Sep-15 05:30N 42°07' E 032°23'611.4
2017-Sep-15 05:00N 42°09' E 032°30'4111.4
2017-Sep-15 01:24N 42°21' E 033°22'1411.7
2017-Sep-15 00:12N 42°22' E 033°41'1011.8
2017-Sep-14 23:20N 42°22' E 033°55'411.7
2017-Sep-14 22:59N 42°22' E 034°01'511.6
2017-Sep-14 22:30N 42°22' E 034°08'611.4
2017-Sep-14 22:00N 42°23' E 034°16'3211.6
2017-Sep-14 19:16N 42°24' E 034°59'711.3
2017-Sep-14 18:37N 42°23' E 035°09'112.1
2017-Sep-14 18:30N 42°22' E 035°10'911.9
2017-Sep-14 17:46N 42°18' E 035°21'2011.6
2017-Sep-14 16:03N 42°08' E 035°44'311.5
2017-Sep-14 15:49N 42°07' E 035°48'92 3.6
2017-Sep-13 14:03N 41°07' E 037°21'0 0.0
2017-Sep-13 14:00N 41°07' E 037°21'0 0.0
2017-Sep-13 11:18N 41°07' E 037°21'0 0.0
2017-Sep-12 08:17N 41°07' E 037°21'0 0.0
2017-Sep-12 06:53N 41°07' E 037°21'0 0.0
2017-Sep-12 06:29N 41°07' E 037°21'0 0.0
2017-Sep-12 05:59N 41°07' E 037°21'0 0.0
2017-Sep-12 05:29N 41°07' E 037°21'0 0.0
2017-Sep-12 04:59N 41°07' E 037°21'0 0.2
2017-Sep-12 02:59N 41°07' E 037°21'1 2.8
2017-Sep-12 02:30N 41°07' E 037°23'1 1.0
2017-Sep-12 02:00N 41°08' E 037°23'0 0.2
2017-Sep-12 01:27N 41°07' E 037°23'0 0.0
2017-Sep-12 00:18N 41°07' E 037°23'0 0.0
2017-Sep-11 21:45N 41°08' E 037°23'0 0.0
2017-Sep-11 21:30N 41°08' E 037°23'0 0.0
2017-Sep-11 18:21N 41°08' E 037°23'0 0.0
2017-Sep-11 17:51N 41°08' E 037°23'0 0.0
2017-Sep-11 17:21N 41°08' E 037°23'0 0.0
2017-Sep-11 16:48N 41°08' E 037°23'  

Dump ship's entire track history